sensor_id;sensor_type;location;lat;lon;timestamp;temperature;humidity
1347;DHT22;667;48.796;9.480;2023-08-31T00:00:29;17.90;85.90
1347;DHT22;667;48.796;9.480;2023-08-31T00:02:57;17.90;86.20
1347;DHT22;667;48.796;9.480;2023-08-31T00:05:22;17.90;86.50
1347;DHT22;667;48.796;9.480;2023-08-31T00:07:50;17.90;86.50
1347;DHT22;667;48.796;9.480;2023-08-31T00:10:16;17.90;86.40
1347;DHT22;667;48.796;9.480;2023-08-31T00:12:42;17.90;87.10
1347;DHT22;667;48.796;9.480;2023-08-31T00:15:09;17.90;86.40
1347;DHT22;667;48.796;9.480;2023-08-31T00:17:35;17.90;86.30
1347;DHT22;667;48.796;9.480;2023-08-31T00:20:00;17.90;86.10
1347;DHT22;667;48.796;9.480;2023-08-31T00:22:26;17.80;85.90
1347;DHT22;667;48.796;9.480;2023-08-31T00:24:52;17.80;85.60
1347;DHT22;667;48.796;9.480;2023-08-31T00:27:18;17.80;85.30
1347;DHT22;667;48.796;9.480;2023-08-31T00:29:43;17.80;85.30
1347;DHT22;667;48.796;9.480;2023-08-31T00:32:15;17.80;85.30
1347;DHT22;667;48.796;9.480;2023-08-31T00:34:40;17.70;85.20
1347;DHT22;667;48.796;9.480;2023-08-31T00:37:06;17.70;85.20
1347;DHT22;667;48.796;9.480;2023-08-31T00:39:31;17.70;85.30
1347;DHT22;667;48.796;9.480;2023-08-31T00:41:59;17.70;85.30
1347;DHT22;667;48.796;9.480;2023-08-31T00:44:24;17.60;85.30
1347;DHT22;667;48.796;9.480;2023-08-31T00:46:50;17.60;85.50
1347;DHT22;667;48.796;9.480;2023-08-31T00:49:17;17.60;85.80
1347;DHT22;667;48.796;9.480;2023-08-31T00:51:43;17.60;85.90
1347;DHT22;667;48.796;9.480;2023-08-31T00:54:15;17.60;85.90
1347;DHT22;667;48.796;9.480;2023-08-31T00:56:41;17.50;85.80
1347;DHT22;667;48.796;9.480;2023-08-31T00:59:07;17.50;86.00
1347;DHT22;667;48.796;9.480;2023-08-31T01:04:38;17.50;86.00
1347;DHT22;667;48.796;9.480;2023-08-31T01:10:14;17.50;86.60
1347;DHT22;667;48.796;9.480;2023-08-31T01:13:06;17.50;86.80
1347;DHT22;667;48.796;9.480;2023-08-31T01:15:38;17.50;87.00
1347;DHT22;667;48.796;9.480;2023-08-31T01:18:06;17.50;87.00
1347;DHT22;667;48.796;9.480;2023-08-31T01:20:40;17.50;86.90
1347;DHT22;667;48.796;9.480;2023-08-31T01:23:16;17.50;86.80
1347;DHT22;667;48.796;9.480;2023-08-31T01:25:44;17.50;86.60
1347;DHT22;667;48.796;9.480;2023-08-31T01:28:10;17.50;86.50
1347;DHT22;667;48.796;9.480;2023-08-31T01:30:36;17.50;86.40
1347;DHT22;667;48.796;9.480;2023-08-31T01:33:02;17.50;86.30
1347;DHT22;667;48.796;9.480;2023-08-31T01:35:32;17.50;86.20
1347;DHT22;667;48.796;9.480;2023-08-31T01:38:02;17.50;86.00
1347;DHT22;667;48.796;9.480;2023-08-31T01:40:34;17.50;85.90
1347;DHT22;667;48.796;9.480;2023-08-31T01:43:01;17.40;85.50
1347;DHT22;667;48.796;9.480;2023-08-31T01:45:30;17.40;85.40
1347;DHT22;667;48.796;9.480;2023-08-31T01:47:55;17.40;85.40
1347;DHT22;667;48.796;9.480;2023-08-31T01:50:21;17.30;85.20
1347;DHT22;667;48.796;9.480;2023-08-31T01:52:47;17.30;85.20
1347;DHT22;667;48.796;9.480;2023-08-31T01:55:12;17.30;85.20
1347;DHT22;667;48.796;9.480;2023-08-31T01:57:41;17.30;85.00
1347;DHT22;667;48.796;9.480;2023-08-31T02:00:09;17.30;85.20
1347;DHT22;667;48.796;9.480;2023-08-31T02:02:35;17.30;85.10
1347;DHT22;667;48.796;9.480;2023-08-31T02:05:01;17.20;85.40
1347;DHT22;667;48.796;9.480;2023-08-31T02:07:28;17.20;85.40
1347;DHT22;667;48.796;9.480;2023-08-31T02:09:53;17.10;85.30
1347;DHT22;667;48.796;9.480;2023-08-31T02:12:19;17.20;86.10
1347;DHT22;667;48.796;9.480;2023-08-31T02:14:44;17.10;85.70
1347;DHT22;667;48.796;9.480;2023-08-31T02:17:10;17.10;85.90
1347;DHT22;667;48.796;9.480;2023-08-31T02:19:35;17.10;86.10
1347;DHT22;667;48.796;9.480;2023-08-31T02:22:01;17.10;86.00
1347;DHT22;667;48.796;9.480;2023-08-31T02:24:26;17.00;86.10
1347;DHT22;667;48.796;9.480;2023-08-31T02:26:52;17.10;86.40
1347;DHT22;667;48.796;9.480;2023-08-31T02:29:18;17.10;86.70
1347;DHT22;667;48.796;9.480;2023-08-31T02:31:43;17.00;86.70
1347;DHT22;667;48.796;9.480;2023-08-31T02:34:10;17.00;86.90
1347;DHT22;667;48.796;9.480;2023-08-31T02:36:36;17.10;87.20
1347;DHT22;667;48.796;9.480;2023-08-31T02:39:02;17.00;87.00
1347;DHT22;667;48.796;9.480;2023-08-31T02:41:29;17.10;87.10
1347;DHT22;667;48.796;9.480;2023-08-31T02:43:54;17.10;87.10
1347;DHT22;667;48.796;9.480;2023-08-31T02:46:20;17.00;86.90
1347;DHT22;667;48.796;9.480;2023-08-31T02:48:46;17.00;86.90
1347;DHT22;667;48.796;9.480;2023-08-31T02:51:12;17.10;87.10
1347;DHT22;667;48.796;9.480;2023-08-31T02:53:37;17.00;86.90
1347;DHT22;667;48.796;9.480;2023-08-31T02:56:03;17.10;87.10
1347;DHT22;667;48.796;9.480;2023-08-31T02:58:29;17.10;87.30
1347;DHT22;667;48.796;9.480;2023-08-31T03:00:54;17.10;87.40
1347;DHT22;667;48.796;9.480;2023-08-31T03:03:21;17.00;87.30
1347;DHT22;667;48.796;9.480;2023-08-31T03:05:47;17.10;87.40
1347;DHT22;667;48.796;9.480;2023-08-31T03:08:12;17.10;87.30
1347;DHT22;667;48.796;9.480;2023-08-31T03:10:38;17.10;87.10
1347;DHT22;667;48.796;9.480;2023-08-31T03:13:04;17.10;87.00
1347;DHT22;667;48.796;9.480;2023-08-31T03:15:32;17.10;86.90
1347;DHT22;667;48.796;9.480;2023-08-31T03:17:59;17.00;86.80
1347;DHT22;667;48.796;9.480;2023-08-31T03:20:24;17.00;86.80
1347;DHT22;667;48.796;9.480;2023-08-31T03:22:50;17.00;86.70
1347;DHT22;667;48.796;9.480;2023-08-31T03:25:15;17.00;86.70
1347;DHT22;667;48.796;9.480;2023-08-31T03:27:41;17.00;86.90
1347;DHT22;667;48.796;9.480;2023-08-31T03:30:07;17.00;86.80
1347;DHT22;667;48.796;9.480;2023-08-31T03:32:33;17.00;86.70
1347;DHT22;667;48.796;9.480;2023-08-31T03:34:58;17.00;86.70
1347;DHT22;667;48.796;9.480;2023-08-31T03:37:24;17.00;86.50
1347;DHT22;667;48.796;9.480;2023-08-31T03:39:50;17.00;86.50
1347;DHT22;667;48.796;9.480;2023-08-31T03:42:15;16.90;86.20
1347;DHT22;667;48.796;9.480;2023-08-31T03:44:41;16.90;86.10
1347;DHT22;667;48.796;9.480;2023-08-31T03:47:07;16.90;86.10
1347;DHT22;667;48.796;9.480;2023-08-31T03:49:32;16.90;86.20
1347;DHT22;667;48.796;9.480;2023-08-31T03:51:59;16.90;86.20
1347;DHT22;667;48.796;9.480;2023-08-31T03:54:25;16.90;86.30
1347;DHT22;667;48.796;9.480;2023-08-31T03:56:50;16.90;86.40
1347;DHT22;667;48.796;9.480;2023-08-31T03:59:16;16.90;86.40
1347;DHT22;667;48.796;9.480;2023-08-31T04:01:42;16.90;86.30
1347;DHT22;667;48.796;9.480;2023-08-31T04:04:07;16.90;86.20
1347;DHT22;667;48.796;9.480;2023-08-31T04:06:33;16.80;86.00
1347;DHT22;667;48.796;9.480;2023-08-31T04:08:59;16.90;86.30
1347;DHT22;667;48.796;9.480;2023-08-31T04:11:25;16.80;86.20
1347;DHT22;667;48.796;9.480;2023-08-31T04:13:51;16.80;86.30
1347;DHT22;667;48.796;9.480;2023-08-31T04:16:17;16.80;86.50
1347;DHT22;667;48.796;9.480;2023-08-31T04:18:42;16.80;86.60
1347;DHT22;667;48.796;9.480;2023-08-31T04:21:08;16.80;86.30
1347;DHT22;667;48.796;9.480;2023-08-31T04:23:34;16.80;86.30
1347;DHT22;667;48.796;9.480;2023-08-31T04:26:00;16.90;86.40
1347;DHT22;667;48.796;9.480;2023-08-31T04:28:25;16.90;86.60
1347;DHT22;667;48.796;9.480;2023-08-31T04:30:51;16.90;86.60
1347;DHT22;667;48.796;9.480;2023-08-31T04:33:18;16.90;86.50
1347;DHT22;667;48.796;9.480;2023-08-31T04:35:43;16.90;86.50
1347;DHT22;667;48.796;9.480;2023-08-31T04:38:09;16.90;86.40
1347;DHT22;667;48.796;9.480;2023-08-31T04:40:35;16.80;86.30
1347;DHT22;667;48.796;9.480;2023-08-31T04:43:02;16.90;86.40
1347;DHT22;667;48.796;9.480;2023-08-31T04:45:28;16.80;86.00
1347;DHT22;667;48.796;9.480;2023-08-31T04:47:53;16.90;86.10
1347;DHT22;667;48.796;9.480;2023-08-31T04:50:19;16.80;86.00
1347;DHT22;667;48.796;9.480;2023-08-31T04:52:44;16.80;86.00
1347;DHT22;667;48.796;9.480;2023-08-31T04:55:11;16.80;86.00
1347;DHT22;667;48.796;9.480;2023-08-31T04:57:38;16.80;85.90
1347;DHT22;667;48.796;9.480;2023-08-31T05:00:05;16.80;85.70
1347;DHT22;667;48.796;9.480;2023-08-31T05:02:30;16.80;85.60
1347;DHT22;667;48.796;9.480;2023-08-31T05:04:56;16.70;85.60
1347;DHT22;667;48.796;9.480;2023-08-31T05:07:21;16.80;85.40
1347;DHT22;667;48.796;9.480;2023-08-31T05:09:47;16.80;85.50
1347;DHT22;667;48.796;9.480;2023-08-31T05:12:12;16.80;85.60
1347;DHT22;667;48.796;9.480;2023-08-31T05:14:38;16.80;85.50
1347;DHT22;667;48.796;9.480;2023-08-31T05:17:05;16.80;85.70
1347;DHT22;667;48.796;9.480;2023-08-31T05:19:31;16.80;85.80
1347;DHT22;667;48.796;9.480;2023-08-31T05:21:56;16.80;85.70
1347;DHT22;667;48.796;9.480;2023-08-31T05:24:22;16.80;85.80
1347;DHT22;667;48.796;9.480;2023-08-31T05:26:49;16.80;85.90
1347;DHT22;667;48.796;9.480;2023-08-31T05:29:15;16.80;86.00
1347;DHT22;667;48.796;9.480;2023-08-31T05:31:40;16.80;86.20
1347;DHT22;667;48.796;9.480;2023-08-31T05:34:06;16.80;86.40
1347;DHT22;667;48.796;9.480;2023-08-31T05:36:31;16.80;86.70
1347;DHT22;667;48.796;9.480;2023-08-31T05:38:57;16.80;87.00
1347;DHT22;667;48.796;9.480;2023-08-31T05:41:22;16.90;87.10
1347;DHT22;667;48.796;9.480;2023-08-31T05:43:48;16.90;87.10
1347;DHT22;667;48.796;9.480;2023-08-31T05:46:14;16.90;87.10
1347;DHT22;667;48.796;9.480;2023-08-31T05:48:39;17.00;87.30
1347;DHT22;667;48.796;9.480;2023-08-31T05:51:05;17.00;87.20
1347;DHT22;667;48.796;9.480;2023-08-31T05:53:31;17.00;87.20
1347;DHT22;667;48.796;9.480;2023-08-31T05:55:58;17.00;87.00
1347;DHT22;667;48.796;9.480;2023-08-31T05:58:36;16.90;86.80
1347;DHT22;667;48.796;9.480;2023-08-31T06:01:03;17.00;86.70
1347;DHT22;667;48.796;9.480;2023-08-31T06:03:29;17.00;86.90
1347;DHT22;667;48.796;9.480;2023-08-31T06:05:55;17.00;87.00
1347;DHT22;667;48.796;9.480;2023-08-31T06:08:22;17.10;87.10
1347;DHT22;667;48.796;9.480;2023-08-31T06:10:47;17.10;86.80
1347;DHT22;667;48.796;9.480;2023-08-31T06:13:13;17.10;86.80
1347;DHT22;667;48.796;9.480;2023-08-31T06:15:38;17.10;87.00
1347;DHT22;667;48.796;9.480;2023-08-31T06:18:04;17.20;86.80
1347;DHT22;667;48.796;9.480;2023-08-31T06:20:30;17.20;86.80
1347;DHT22;667;48.796;9.480;2023-08-31T06:22:56;17.20;87.00
1347;DHT22;667;48.796;9.480;2023-08-31T06:25:22;17.20;87.00
1347;DHT22;667;48.796;9.480;2023-08-31T06:27:48;17.20;86.60
1347;DHT22;667;48.796;9.480;2023-08-31T06:30:14;17.30;86.50
1347;DHT22;667;48.796;9.480;2023-08-31T06:32:46;17.30;86.30
1347;DHT22;667;48.796;9.480;2023-08-31T06:35:13;17.30;86.50
1347;DHT22;667;48.796;9.480;2023-08-31T06:37:39;17.40;86.80
1347;DHT22;667;48.796;9.480;2023-08-31T06:40:09;17.40;87.10
1347;DHT22;667;48.796;9.480;2023-08-31T06:42:37;17.40;87.20
1347;DHT22;667;48.796;9.480;2023-08-31T06:45:04;17.40;87.00
1347;DHT22;667;48.796;9.480;2023-08-31T06:47:30;17.50;87.10
1347;DHT22;667;48.796;9.480;2023-08-31T06:49:56;17.50;87.20
1347;DHT22;667;48.796;9.480;2023-08-31T06:52:23;17.60;87.30
1347;DHT22;667;48.796;9.480;2023-08-31T06:54:49;17.60;87.20
1347;DHT22;667;48.796;9.480;2023-08-31T06:57:14;17.70;87.20
1347;DHT22;667;48.796;9.480;2023-08-31T06:59:40;17.70;86.90
1347;DHT22;667;48.796;9.480;2023-08-31T07:02:06;17.80;86.20
1347;DHT22;667;48.796;9.480;2023-08-31T07:04:31;17.80;85.60
1347;DHT22;667;48.796;9.480;2023-08-31T07:06:57;17.90;85.40
1347;DHT22;667;48.796;9.480;2023-08-31T07:09:22;17.90;85.30
1347;DHT22;667;48.796;9.480;2023-08-31T07:11:48;17.90;85.20
1347;DHT22;667;48.796;9.480;2023-08-31T07:14:13;17.90;85.10
1347;DHT22;667;48.796;9.480;2023-08-31T07:16:39;18.00;85.20
1347;DHT22;667;48.796;9.480;2023-08-31T07:19:04;18.00;85.30
1347;DHT22;667;48.796;9.480;2023-08-31T07:21:30;18.00;84.90
1347;DHT22;667;48.796;9.480;2023-08-31T07:23:56;18.00;84.90
1347;DHT22;667;48.796;9.480;2023-08-31T07:26:22;18.10;85.10
1347;DHT22;667;48.796;9.480;2023-08-31T07:28:48;18.10;85.00
1347;DHT22;667;48.796;9.480;2023-08-31T07:31:13;18.10;84.70
1347;DHT22;667;48.796;9.480;2023-08-31T07:33:39;18.10;84.50
1347;DHT22;667;48.796;9.480;2023-08-31T07:36:05;18.10;84.50
1347;DHT22;667;48.796;9.480;2023-08-31T07:38:31;18.10;84.50
1347;DHT22;667;48.796;9.480;2023-08-31T07:40:58;18.10;84.30
1347;DHT22;667;48.796;9.480;2023-08-31T07:43:23;18.10;83.80
1347;DHT22;667;48.796;9.480;2023-08-31T07:45:50;18.20;83.80
1347;DHT22;667;48.796;9.480;2023-08-31T07:48:15;18.10;83.60
1347;DHT22;667;48.796;9.480;2023-08-31T07:50:41;18.20;83.40
1347;DHT22;667;48.796;9.480;2023-08-31T07:53:07;18.20;83.00
1347;DHT22;667;48.796;9.480;2023-08-31T07:55:33;18.30;82.90
1347;DHT22;667;48.796;9.480;2023-08-31T07:58:00;18.30;83.10
1347;DHT22;667;48.796;9.480;2023-08-31T08:00:26;18.40;83.10
1347;DHT22;667;48.796;9.480;2023-08-31T08:02:52;18.50;82.50
1347;DHT22;667;48.796;9.480;2023-08-31T08:05:17;18.50;81.80
1347;DHT22;667;48.796;9.480;2023-08-31T08:07:43;18.50;81.60
1347;DHT22;667;48.796;9.480;2023-08-31T08:10:09;18.60;81.90
1347;DHT22;667;48.796;9.480;2023-08-31T08:12:39;18.60;81.70
1347;DHT22;667;48.796;9.480;2023-08-31T08:15:06;18.60;81.60
1347;DHT22;667;48.796;9.480;2023-08-31T08:17:35;18.60;81.30
1347;DHT22;667;48.796;9.480;2023-08-31T08:20:00;18.70;80.90
1347;DHT22;667;48.796;9.480;2023-08-31T08:22:26;18.70;79.90
1347;DHT22;667;48.796;9.480;2023-08-31T08:24:52;18.70;79.30
1347;DHT22;667;48.796;9.480;2023-08-31T08:27:17;18.70;78.60
1347;DHT22;667;48.796;9.480;2023-08-31T08:29:44;18.70;77.70
1347;DHT22;667;48.796;9.480;2023-08-31T08:32:10;18.70;78.10
1347;DHT22;667;48.796;9.480;2023-08-31T08:34:36;18.70;76.90
1347;DHT22;667;48.796;9.480;2023-08-31T08:37:01;18.80;77.30
1347;DHT22;667;48.796;9.480;2023-08-31T08:39:29;18.80;76.80
1347;DHT22;667;48.796;9.480;2023-08-31T08:41:58;18.90;75.90
1347;DHT22;667;48.796;9.480;2023-08-31T08:44:25;19.00;75.50
1347;DHT22;667;48.796;9.480;2023-08-31T08:46:52;19.00;74.80
1347;DHT22;667;48.796;9.480;2023-08-31T08:49:21;19.10;74.70
1347;DHT22;667;48.796;9.480;2023-08-31T08:51:48;19.20;74.40
1347;DHT22;667;48.796;9.480;2023-08-31T08:54:17;19.30;74.50
1347;DHT22;667;48.796;9.480;2023-08-31T08:56:42;19.40;73.70
1347;DHT22;667;48.796;9.480;2023-08-31T08:59:08;19.40;72.80
1347;DHT22;667;48.796;9.480;2023-08-31T09:01:38;19.30;72.60
1347;DHT22;667;48.796;9.480;2023-08-31T09:04:04;19.30;73.10
1347;DHT22;667;48.796;9.480;2023-08-31T09:06:29;19.30;73.40
1347;DHT22;667;48.796;9.480;2023-08-31T09:08:55;19.30;73.30
1347;DHT22;667;48.796;9.480;2023-08-31T09:11:22;19.20;71.40
1347;DHT22;667;48.796;9.480;2023-08-31T09:13:49;19.20;68.70
1347;DHT22;667;48.796;9.480;2023-08-31T09:18:50;19.20;65.40
1347;DHT22;667;48.796;9.480;2023-08-31T09:21:16;19.10;63.90
1347;DHT22;667;48.796;9.480;2023-08-31T09:23:41;19.10;63.80
1347;DHT22;667;48.796;9.480;2023-08-31T09:26:07;19.10;64.00
1347;DHT22;667;48.796;9.480;2023-08-31T09:28:33;19.10;63.80
1347;DHT22;667;48.796;9.480;2023-08-31T09:31:06;19.10;64.10
1347;DHT22;667;48.796;9.480;2023-08-31T09:33:32;19.10;64.50
1347;DHT22;667;48.796;9.480;2023-08-31T09:36:00;19.20;64.80
1347;DHT22;667;48.796;9.480;2023-08-31T09:38:26;19.20;65.00
1347;DHT22;667;48.796;9.480;2023-08-31T09:40:56;19.30;65.30
1347;DHT22;667;48.796;9.480;2023-08-31T09:43:28;19.50;65.80
1347;DHT22;667;48.796;9.480;2023-08-31T09:45:54;19.60;65.20
1347;DHT22;667;48.796;9.480;2023-08-31T09:48:19;19.80;63.80
1347;DHT22;667;48.796;9.480;2023-08-31T09:50:45;19.80;62.50
1347;DHT22;667;48.796;9.480;2023-08-31T09:53:11;19.90;61.80
1347;DHT22;667;48.796;9.480;2023-08-31T09:55:39;19.90;61.80
1347;DHT22;667;48.796;9.480;2023-08-31T09:58:07;20.00;61.80
1347;DHT22;667;48.796;9.480;2023-08-31T10:00:35;19.90;61.50
1347;DHT22;667;48.796;9.480;2023-08-31T10:03:03;19.90;62.80
1347;DHT22;667;48.796;9.480;2023-08-31T10:05:29;19.90;63.50
1347;DHT22;667;48.796;9.480;2023-08-31T10:07:57;19.90;63.90
1347;DHT22;667;48.796;9.480;2023-08-31T10:10:23;19.90;64.20
1347;DHT22;667;48.796;9.480;2023-08-31T10:12:49;19.90;64.00
1347;DHT22;667;48.796;9.480;2023-08-31T10:15:18;20.00;64.60
1347;DHT22;667;48.796;9.480;2023-08-31T10:17:44;19.90;65.40
1347;DHT22;667;48.796;9.480;2023-08-31T10:20:12;19.90;65.70
1347;DHT22;667;48.796;9.480;2023-08-31T10:22:38;19.90;65.40
1347;DHT22;667;48.796;9.480;2023-08-31T10:25:06;20.00;65.60
1347;DHT22;667;48.796;9.480;2023-08-31T10:27:42;20.10;65.70
1347;DHT22;667;48.796;9.480;2023-08-31T10:30:15;20.30;65.10
1347;DHT22;667;48.796;9.480;2023-08-31T10:32:41;20.40;63.30
1347;DHT22;667;48.796;9.480;2023-08-31T10:35:08;20.50;62.10
1347;DHT22;667;48.796;9.480;2023-08-31T10:37:34;20.70;61.20
1347;DHT22;667;48.796;9.480;2023-08-31T10:40:12;20.80;60.30
1347;DHT22;667;48.796;9.480;2023-08-31T10:42:42;20.80;59.30
1347;DHT22;667;48.796;9.480;2023-08-31T10:45:08;20.80;58.90
1347;DHT22;667;48.796;9.480;2023-08-31T10:47:40;20.70;59.40
1347;DHT22;667;48.796;9.480;2023-08-31T10:50:20;20.80;59.10
1347;DHT22;667;48.796;9.480;2023-08-31T10:52:46;20.90;59.00
1347;DHT22;667;48.796;9.480;2023-08-31T10:55:12;21.00;58.30
1347;DHT22;667;48.796;9.480;2023-08-31T10:57:39;21.10;56.90
1347;DHT22;667;48.796;9.480;2023-08-31T11:00:07;21.10;55.20
1347;DHT22;667;48.796;9.480;2023-08-31T11:02:42;21.10;55.30
1347;DHT22;667;48.796;9.480;2023-08-31T11:07:39;21.00;55.20
1347;DHT22;667;48.796;9.480;2023-08-31T11:10:20;20.90;55.20
1347;DHT22;667;48.796;9.480;2023-08-31T11:12:50;20.80;54.90
1347;DHT22;667;48.796;9.480;2023-08-31T11:15:19;20.70;55.00
1347;DHT22;667;48.796;9.480;2023-08-31T11:17:45;20.60;55.40
1347;DHT22;667;48.796;9.480;2023-08-31T11:20:16;20.60;56.10
1347;DHT22;667;48.796;9.480;2023-08-31T11:22:43;20.50;56.00
1347;DHT22;667;48.796;9.480;2023-08-31T11:25:11;20.50;56.10
1347;DHT22;667;48.796;9.480;2023-08-31T11:27:37;20.60;56.00
1347;DHT22;667;48.796;9.480;2023-08-31T11:30:25;20.60;55.70
1347;DHT22;667;48.796;9.480;2023-08-31T11:32:51;20.70;55.80
1347;DHT22;667;48.796;9.480;2023-08-31T11:35:19;20.80;56.00
1347;DHT22;667;48.796;9.480;2023-08-31T11:37:49;20.90;55.60
1347;DHT22;667;48.796;9.480;2023-08-31T11:40:14;20.90;55.50
1347;DHT22;667;48.796;9.480;2023-08-31T11:42:40;20.90;55.70
1347;DHT22;667;48.796;9.480;2023-08-31T11:45:06;20.90;55.50
1347;DHT22;667;48.796;9.480;2023-08-31T11:47:33;20.90;55.10
1347;DHT22;667;48.796;9.480;2023-08-31T11:50:00;20.90;55.10
1347;DHT22;667;48.796;9.480;2023-08-31T11:52:27;20.90;55.10
1347;DHT22;667;48.796;9.480;2023-08-31T11:54:53;20.90;55.10
1347;DHT22;667;48.796;9.480;2023-08-31T11:57:19;20.90;55.30
1347;DHT22;667;48.796;9.480;2023-08-31T11:59:50;20.90;55.60
1347;DHT22;667;48.796;9.480;2023-08-31T12:02:19;20.90;55.70
1347;DHT22;667;48.796;9.480;2023-08-31T12:04:45;21.00;56.00
1347;DHT22;667;48.796;9.480;2023-08-31T12:07:11;21.00;55.60
1347;DHT22;667;48.796;9.480;2023-08-31T12:09:40;21.00;55.10
1347;DHT22;667;48.796;9.480;2023-08-31T12:12:07;21.00;54.90
1347;DHT22;667;48.796;9.480;2023-08-31T12:14:33;21.00;55.00
1347;DHT22;667;48.796;9.480;2023-08-31T12:17:07;21.00;55.10
1347;DHT22;667;48.796;9.480;2023-08-31T12:19:33;21.00;55.50
1347;DHT22;667;48.796;9.480;2023-08-31T12:22:01;21.00;55.90
1347;DHT22;667;48.796;9.480;2023-08-31T12:24:26;21.00;56.40
1347;DHT22;667;48.796;9.480;2023-08-31T12:26:52;21.00;56.80
1347;DHT22;667;48.796;9.480;2023-08-31T12:29:23;21.10;57.50
1347;DHT22;667;48.796;9.480;2023-08-31T12:31:50;21.10;57.10
1347;DHT22;667;48.796;9.480;2023-08-31T12:34:15;21.10;56.80
1347;DHT22;667;48.796;9.480;2023-08-31T12:36:41;21.10;56.40
1347;DHT22;667;48.796;9.480;2023-08-31T12:39:08;21.10;56.20
1347;DHT22;667;48.796;9.480;2023-08-31T12:41:38;21.10;56.30
1347;DHT22;667;48.796;9.480;2023-08-31T12:44:04;21.10;56.70
1347;DHT22;667;48.796;9.480;2023-08-31T12:46:30;21.10;56.60
1347;DHT22;667;48.796;9.480;2023-08-31T12:48:56;21.10;56.70
1347;DHT22;667;48.796;9.480;2023-08-31T12:51:22;21.10;56.10
1347;DHT22;667;48.796;9.480;2023-08-31T12:53:47;21.00;56.00
1347;DHT22;667;48.796;9.480;2023-08-31T12:56:13;21.10;56.30
1347;DHT22;667;48.796;9.480;2023-08-31T12:58:48;21.10;56.70
1347;DHT22;667;48.796;9.480;2023-08-31T13:01:13;21.10;56.80
1347;DHT22;667;48.796;9.480;2023-08-31T13:03:39;21.10;56.50
1347;DHT22;667;48.796;9.480;2023-08-31T13:06:04;21.10;56.10
1347;DHT22;667;48.796;9.480;2023-08-31T13:08:30;21.10;57.10
1347;DHT22;667;48.796;9.480;2023-08-31T13:10:55;21.00;57.20
1347;DHT22;667;48.796;9.480;2023-08-31T13:13:22;21.10;58.00
1347;DHT22;667;48.796;9.480;2023-08-31T13:15:48;21.10;57.50
1347;DHT22;667;48.796;9.480;2023-08-31T13:18:14;21.10;57.40
1347;DHT22;667;48.796;9.480;2023-08-31T13:20:39;21.10;57.70
1347;DHT22;667;48.796;9.480;2023-08-31T13:23:06;21.10;57.40
1347;DHT22;667;48.796;9.480;2023-08-31T13:25:31;21.10;57.40
1347;DHT22;667;48.796;9.480;2023-08-31T13:27:57;21.10;57.70
1347;DHT22;667;48.796;9.480;2023-08-31T13:30:23;21.10;57.70
1347;DHT22;667;48.796;9.480;2023-08-31T13:32:49;21.10;58.00
1347;DHT22;667;48.796;9.480;2023-08-31T13:35:14;21.10;58.00
1347;DHT22;667;48.796;9.480;2023-08-31T13:37:40;21.10;57.90
1347;DHT22;667;48.796;9.480;2023-08-31T13:40:06;21.10;58.20
1347;DHT22;667;48.796;9.480;2023-08-31T13:42:36;21.00;58.70
1347;DHT22;667;48.796;9.480;2023-08-31T13:45:08;21.00;58.80
1347;DHT22;667;48.796;9.480;2023-08-31T13:47:34;21.00;58.50
1347;DHT22;667;48.796;9.480;2023-08-31T13:50:00;21.00;58.40
1347;DHT22;667;48.796;9.480;2023-08-31T13:52:25;21.00;58.40
1347;DHT22;667;48.796;9.480;2023-08-31T13:54:51;21.10;58.50
1347;DHT22;667;48.796;9.480;2023-08-31T13:57:18;21.10;58.30
1347;DHT22;667;48.796;9.480;2023-08-31T13:59:44;21.20;58.20
1347;DHT22;667;48.796;9.480;2023-08-31T14:02:10;21.20;58.10
1347;DHT22;667;48.796;9.480;2023-08-31T14:04:35;21.30;57.60
1347;DHT22;667;48.796;9.480;2023-08-31T14:07:01;21.40;56.20
1347;DHT22;667;48.796;9.480;2023-08-31T14:09:30;21.50;56.30
1347;DHT22;667;48.796;9.480;2023-08-31T14:11:57;21.60;56.70
1347;DHT22;667;48.796;9.480;2023-08-31T14:14:22;21.60;56.50
1347;DHT22;667;48.796;9.480;2023-08-31T14:16:49;21.60;56.30
1347;DHT22;667;48.796;9.480;2023-08-31T14:19:15;21.70;57.20
1347;DHT22;667;48.796;9.480;2023-08-31T14:21:40;21.60;56.70
1347;DHT22;667;48.796;9.480;2023-08-31T14:24:06;21.60;56.10
1347;DHT22;667;48.796;9.480;2023-08-31T14:26:32;21.60;55.70
1347;DHT22;667;48.796;9.480;2023-08-31T14:28:58;21.50;55.70
1347;DHT22;667;48.796;9.480;2023-08-31T14:31:23;21.50;56.10
1347;DHT22;667;48.796;9.480;2023-08-31T14:33:49;21.40;56.90
1347;DHT22;667;48.796;9.480;2023-08-31T14:36:16;21.40;57.40
1347;DHT22;667;48.796;9.480;2023-08-31T14:38:42;21.40;57.10
1347;DHT22;667;48.796;9.480;2023-08-31T14:41:07;21.30;57.10
1347;DHT22;667;48.796;9.480;2023-08-31T14:43:33;21.30;57.50
1347;DHT22;667;48.796;9.480;2023-08-31T14:46:00;21.20;58.30
1347;DHT22;667;48.796;9.480;2023-08-31T14:48:32;21.20;59.10
1347;DHT22;667;48.796;9.480;2023-08-31T14:50:58;21.10;61.30
1347;DHT22;667;48.796;9.480;2023-08-31T14:53:24;21.10;63.60
1347;DHT22;667;48.796;9.480;2023-08-31T14:55:50;21.10;65.80
1347;DHT22;667;48.796;9.480;2023-08-31T14:58:16;21.00;66.70
1347;DHT22;667;48.796;9.480;2023-08-31T15:00:42;21.00;67.70
1347;DHT22;667;48.796;9.480;2023-08-31T15:03:07;21.00;69.20
1347;DHT22;667;48.796;9.480;2023-08-31T15:05:34;21.00;68.90
1347;DHT22;667;48.796;9.480;2023-08-31T15:08:00;20.90;68.90
1347;DHT22;667;48.796;9.480;2023-08-31T15:10:27;20.80;69.20
1347;DHT22;667;48.796;9.480;2023-08-31T15:12:52;20.80;69.30
1347;DHT22;667;48.796;9.480;2023-08-31T15:15:23;20.70;69.20
1347;DHT22;667;48.796;9.480;2023-08-31T15:17:49;20.70;69.30
1347;DHT22;667;48.796;9.480;2023-08-31T15:20:16;20.60;69.30
1347;DHT22;667;48.796;9.480;2023-08-31T15:22:41;20.60;69.60
1347;DHT22;667;48.796;9.480;2023-08-31T15:25:07;20.60;70.10
1347;DHT22;667;48.796;9.480;2023-08-31T15:27:32;20.60;70.80
1347;DHT22;667;48.796;9.480;2023-08-31T15:29:58;20.60;71.70
1347;DHT22;667;48.796;9.480;2023-08-31T15:32:24;20.70;70.40
1347;DHT22;667;48.796;9.480;2023-08-31T15:34:49;20.60;70.60
1347;DHT22;667;48.796;9.480;2023-08-31T15:37:15;20.60;71.00
1347;DHT22;667;48.796;9.480;2023-08-31T15:39:40;20.70;71.50
1347;DHT22;667;48.796;9.480;2023-08-31T15:42:06;20.70;71.80
1347;DHT22;667;48.796;9.480;2023-08-31T15:44:31;20.70;72.10
1347;DHT22;667;48.796;9.480;2023-08-31T15:46:59;20.60;72.10
1347;DHT22;667;48.796;9.480;2023-08-31T15:49:25;20.60;72.40
1347;DHT22;667;48.796;9.480;2023-08-31T15:51:51;20.50;72.50
1347;DHT22;667;48.796;9.480;2023-08-31T15:54:17;20.60;72.80
1347;DHT22;667;48.796;9.480;2023-08-31T15:56:43;20.50;73.20
1347;DHT22;667;48.796;9.480;2023-08-31T15:59:08;20.50;73.60
1347;DHT22;667;48.796;9.480;2023-08-31T16:01:34;20.50;74.00
1347;DHT22;667;48.796;9.480;2023-08-31T16:04:01;20.50;73.80
1347;DHT22;667;48.796;9.480;2023-08-31T16:06:28;20.50;73.60
1347;DHT22;667;48.796;9.480;2023-08-31T16:08:55;20.50;73.90
1347;DHT22;667;48.796;9.480;2023-08-31T16:11:23;20.50;74.20
1347;DHT22;667;48.796;9.480;2023-08-31T16:13:50;20.50;74.60
1347;DHT22;667;48.796;9.480;2023-08-31T16:16:16;20.50;75.80
1347;DHT22;667;48.796;9.480;2023-08-31T16:18:42;20.50;75.20
1347;DHT22;667;48.796;9.480;2023-08-31T16:21:07;20.50;75.20
1347;DHT22;667;48.796;9.480;2023-08-31T16:23:33;20.50;75.30